createdAt,value
2019-05-09T00:05:44.136Z,39.50
2019-05-09T00:18:14.201Z,39.60
2019-05-09T00:28:15.653Z,39.60
2019-05-09T00:46:00.665Z,40.10
2019-05-09T00:48:33.669Z,40.00
2019-05-09T01:08:33.595Z,39.60
2019-05-09T01:38:43.401Z,38.90
2019-05-09T01:53:43.908Z,38.70
2019-05-09T02:08:43.768Z,38.70
2019-05-09T02:18:44.836Z,38.50
2019-05-09T02:33:45.507Z,39.20
2019-05-09T02:46:10.126Z,39.30
2019-05-09T02:51:09.210Z,39.30
2019-05-09T02:53:39.474Z,39.40
2019-05-09T02:56:09.423Z,39.30
2019-05-09T03:01:18.981Z,39.60
2019-05-09T03:03:48.306Z,40.10
2019-05-09T03:21:29.387Z,40.60
2019-05-09T03:26:29.382Z,40.70
2019-05-09T03:29:08.580Z,40.70
2019-05-09T03:31:39.374Z,40.70
2019-05-09T03:34:09.635Z,40.60
2019-05-09T03:39:08.362Z,40.80
2019-05-09T03:41:39.354Z,40.90
2019-05-09T03:44:07.763Z,41.00
2019-05-09T03:49:11.739Z,41.20
2019-05-09T03:54:09.170Z,41.10
2019-05-09T04:04:10.866Z,41.40
2019-05-09T04:16:38.071Z,41.70
2019-05-09T04:19:08.285Z,41.60
2019-05-09T04:44:17.198Z,41.20
2019-05-09T04:46:42.184Z,41.10
2019-05-09T04:49:11.096Z,40.70
2019-05-09T04:51:39.897Z,40.70
2019-05-09T04:56:38.757Z,40.00
2019-05-09T05:01:38.947Z,39.30
2019-05-09T05:09:08.803Z,38.80
2019-05-09T05:11:38.332Z,38.50
2019-05-09T05:59:58.349Z,33.70
2019-05-09T06:04:57.884Z,33.30
2019-05-09T06:14:58.225Z,31.90
2019-05-09T06:19:58.980Z,31.80
2019-05-09T06:35:18.460Z,31.00
2019-05-09T06:37:47.785Z,30.70
2019-05-09T06:45:24.111Z,30.60
2019-05-09T06:50:20.932Z,30.00
2019-05-09T07:13:31.127Z,29.00
2019-05-09T07:18:28.091Z,28.40
2019-05-09T07:26:07.721Z,27.70
2019-05-09T07:28:37.654Z,27.90
2019-05-09T07:31:23.491Z,27.80
2019-05-09T07:36:21.821Z,24.70
2019-05-09T07:38:50.308Z,26.90
2019-05-09T07:41:18.825Z,26.50
2019-05-09T07:46:18.319Z,25.80
2019-05-09T07:48:48.529Z,26.00
2019-05-09T07:53:48.187Z,26.00
2019-05-09T07:56:18.652Z,25.80
2019-05-09T07:58:47.821Z,25.60
2019-05-09T08:03:49.031Z,25.90
2019-05-09T08:11:18.020Z,24.60
2019-05-09T08:13:48.671Z,24.60
2019-05-09T08:18:48.319Z,24.70
2019-05-09T08:23:48.486Z,24.10
2019-05-09T08:26:18.877Z,24.30
2019-05-09T08:28:48.135Z,24.40
2019-05-09T08:31:17.869Z,24.00
2019-05-09T08:33:48.458Z,23.70
2019-05-09T08:36:19.783Z,23.70
2019-05-09T08:38:47.781Z,23.40
2019-05-09T08:41:18.622Z,22.80
2019-05-09T08:48:48.522Z,21.90
2019-05-09T08:51:18.540Z,22.10
2019-05-09T08:58:48.527Z,22.00
2019-05-09T09:06:18.333Z,21.70
2019-05-09T09:08:48.261Z,21.90
2019-05-09T09:11:18.775Z,21.70
2019-05-09T09:13:48.275Z,21.10
2019-05-09T09:18:48.037Z,20.30
2019-05-09T09:41:38.473Z,18.30
2019-05-09T09:46:34.127Z,18.10
2019-05-09T09:49:02.752Z,18.60
2019-05-09T09:51:31.438Z,17.80
2019-05-09T09:54:00.086Z,17.90
2019-05-09T09:58:58.847Z,18.70
2019-05-09T10:04:16.556Z,18.90
2019-05-09T10:17:04.656Z,16.80
2019-05-09T10:19:52.473Z,16.20
2019-05-09T10:22:28.273Z,16.90
2019-05-09T10:24:58.591Z,15.40
2019-05-09T10:27:28.327Z,16.20
2019-05-09T10:29:57.519Z,15.90
2019-05-09T10:32:28.560Z,15.30
2019-05-09T10:34:58.046Z,15.50
2019-05-09T10:37:26.856Z,14.10
2019-05-09T10:39:57.870Z,13.70
2019-05-09T10:47:42.462Z,14.10
2019-05-09T11:02:37.489Z,12.60
2019-05-09T11:05:08.419Z,12.90
2019-05-09T11:07:38.087Z,12.90
2019-05-09T11:12:36.860Z,13.10
2019-05-09T11:17:34.162Z,11.20
2019-05-09T11:20:02.686Z,11.40
2019-05-09T11:22:31.187Z,11.30
2019-05-09T11:24:59.704Z,10.40
2019-05-09T11:27:29.302Z,10.70
2019-05-09T11:32:27.672Z,10.40
2019-05-09T11:34:57.626Z,10.40
2019-05-09T11:37:26.393Z,10.90
2019-05-09T11:39:54.933Z,11.10
2019-05-09T11:42:23.419Z,10.00
2019-05-09T11:44:51.996Z,9.30
2019-05-09T11:52:18.696Z,9.00
2019-05-09T11:54:48.207Z,9.40
2019-05-09T11:57:19.145Z,9.20
2019-05-09T11:59:48.044Z,9.60
2019-05-09T12:04:48.620Z,10.00
2019-05-09T12:09:48.689Z,8.90
2019-05-09T12:12:19.306Z,9.10
2019-05-09T12:14:48.417Z,9.30
2019-05-09T12:17:19.579Z,8.00
2019-05-09T12:22:19.055Z,7.80
2019-05-09T12:27:18.741Z,8.10
2019-05-09T12:29:48.358Z,8.50
2019-05-09T12:32:18.722Z,7.40
2019-05-09T12:49:42.951Z,8.80
2019-05-09T13:04:35.200Z,9.40
2019-05-09T13:09:32.000Z,8.30
2019-05-09T13:22:08.114Z,4.80
2019-05-09T13:42:04.532Z,8.30
2019-05-09T13:44:33.043Z,2.90
2019-05-09T13:47:01.586Z,2.10
2019-05-09T13:52:04.472Z,2.60
2019-05-09T13:54:28.703Z,1.70
2019-05-09T13:57:00.587Z,2.60
2019-05-09T13:59:30.033Z,3.10
2019-05-09T14:04:28.579Z,3.80
2019-05-09T14:06:58.314Z,5.00
2019-05-09T14:14:28.152Z,8.20
2019-05-09T14:19:39.760Z,9.80
2019-05-09T14:22:17.939Z,10.10
2019-05-09T14:27:18.700Z,7.30
2019-05-09T14:34:43.277Z,8.70
2019-05-09T14:37:11.905Z,6.40
2019-05-09T14:39:54.853Z,6.40
2019-05-09T14:42:10.724Z,6.20
2019-05-09T14:44:39.367Z,6.40
2019-05-09T14:47:08.203Z,6.90
2019-05-09T14:49:41.435Z,5.50
2019-05-09T14:59:38.366Z,10.00
2019-05-09T15:02:09.000Z,10.20
2019-05-09T15:09:36.315Z,12.40
2019-05-09T15:12:05.014Z,13.00
2019-05-09T15:19:30.735Z,14.70
2019-05-09T15:22:00.839Z,15.10
2019-05-09T15:26:58.122Z,17.00
2019-05-09T15:34:28.539Z,17.80
2019-05-09T15:39:27.720Z,19.00
2019-05-09T16:09:18.016Z,16.60
2019-05-09T16:14:18.504Z,15.10
2019-05-09T16:16:47.848Z,14.70
2019-05-09T16:24:12.909Z,14.80
2019-05-09T16:26:41.509Z,15.00
2019-05-09T16:29:10.022Z,15.60
2019-05-09T17:01:28.405Z,16.20
2019-05-09T17:18:58.215Z,16.30
2019-05-09T17:33:57.899Z,9.90
2019-05-09T17:36:28.486Z,6.50
2019-05-09T17:38:56.604Z,5.60
2019-05-09T17:41:25.185Z,4.50
2019-05-09T17:43:53.836Z,1.00
2019-05-09T17:46:24.472Z,1.00
2019-05-09T17:48:52.765Z,1.00
2019-05-09T17:51:32.656Z,1.00
2019-05-09T18:11:17.432Z,12.60
2019-05-09T18:13:48.039Z,14.00
2019-05-09T19:00:59.982Z,22.80
2019-05-09T19:18:36.350Z,24.60
2019-05-09T19:23:35.678Z,25.20
2019-05-09T19:38:29.046Z,26.40
2019-05-09T19:55:46.911Z,27.50
2019-05-09T20:18:15.749Z,27.60
2019-05-09T20:38:02.047Z,28.80
2019-05-09T20:47:56.276Z,29.20
2019-05-09T20:50:25.084Z,29.40
2019-05-09T20:55:23.950Z,29.40
2019-05-09T21:00:21.363Z,29.10
2019-05-09T21:02:50.232Z,29.50
2019-05-09T21:05:19.087Z,29.60
2019-05-09T21:07:47.872Z,29.10
2019-05-09T21:10:18.156Z,29.70
2019-05-09T21:12:46.859Z,30.00
2019-05-09T21:15:15.751Z,30.00
2019-05-09T21:20:13.013Z,30.00
2019-05-09T21:22:41.809Z,30.00
2019-05-09T21:27:39.349Z,28.90
2019-05-09T21:32:36.706Z,29.80
2019-05-09T21:37:33.997Z,29.80
2019-05-09T21:42:30.748Z,30.00
2019-05-09T21:49:55.755Z,32.10
2019-05-09T22:09:42.826Z,34.50
2019-05-09T22:19:40.663Z,34.40
2019-05-09T22:24:37.766Z,34.40
2019-05-09T22:36:59.185Z,34.90
2019-05-09T22:44:24.174Z,32.50
2019-05-09T22:46:52.726Z,31.30
2019-05-09T22:51:49.675Z,30.10
2019-05-09T22:54:18.268Z,29.20
2019-05-09T23:01:43.680Z,27.70
2019-05-09T23:11:37.079Z,27.20
2019-05-09T23:16:35.478Z,26.70
2019-05-09T23:21:33.766Z,26.60
2019-05-09T23:39:09.059Z,28.10
2019-05-09T23:41:37.945Z,28.80
2019-05-09T23:44:06.524Z,29.60
2019-05-09T23:51:49.941Z,30.50
